Time;durP1;ratioP1;P1;durP2;ratioP2;P2;SDS_P1;SDS_P2;PMS_P1;PMS_P2;Temp;Humidity;BMP_temperature;BMP_pressure;BME280_temperature;BME280_humidity;BME280_pressure;Samples;Min_cycle;Max_cycle;Signal;HPM_P1;HPM_P2
2023/01/15 00:02:23;;;;;;;6.15;2.95;;;5.50;56.70;;;;;;4903440;28;118585;-83
2023/01/15 00:04:51;;;;;;;5.88;2.80;;;5.60;56.70;;;;;;4924115;28;114950;-83
2023/01/15 00:07:18;;;;;;;7.47;3.08;;;5.60;56.70;;;;;;4927091;28;114621;-83
2023/01/15 00:09:45;;;;;;;7.68;3.25;;;5.60;56.70;;;;;;4924980;28;114467;-84
2023/01/15 00:12:16;;;;;;;7.72;3.05;;;5.60;56.60;;;;;;4925308;28;115049;-83
2023/01/15 00:14:44;;;;;;;7.50;2.90;;;5.50;56.60;;;;;;4927502;28;114662;-84
2023/01/15 00:17:13;;;;;;;7.55;3.05;;;5.60;56.90;;;;;;4915106;28;114887;-84
2023/01/15 00:19:40;;;;;;;7.97;3.47;;;5.60;56.80;;;;;;4933431;28;114396;-84
2023/01/15 00:22:07;;;;;;;7.82;3.67;;;5.60;56.90;;;;;;4925806;28;115112;-84
2023/01/15 00:27:38;;;;;;;7.97;3.55;;;5.60;56.80;;;;;;4925993;28;114726;-83
2023/01/15 00:30:12;;;;;;;7.03;4.03;;;5.50;56.90;;;;;;4917420;28;114507;-83
2023/01/15 00:32:40;;;;;;;8.23;4.10;;;5.50;57.10;;;;;;4890125;28;115162;-83
2023/01/15 00:35:14;;;;;;;7.45;3.90;;;5.50;57.10;;;;;;4904274;28;114684;-84
2023/01/15 00:37:41;;;;;;;7.20;3.80;;;5.60;56.80;;;;;;4925867;28;114562;-83
2023/01/15 00:40:11;;;;;;;7.13;3.63;;;5.60;56.80;;;;;;4894471;28;114827;-83
2023/01/15 00:42:38;;;;;;;6.32;3.53;;;5.60;56.80;;;;;;4923051;28;115167;-83
2023/01/15 00:45:09;;;;;;;7.40;3.45;;;5.60;56.90;;;;;;4925547;28;114693;-83
2023/01/15 00:47:42;;;;;;;6.07;3.38;;;5.70;56.90;;;;;;4908889;28;114383;-83
2023/01/15 00:50:11;;;;;;;8.85;4.15;;;5.70;56.70;;;;;;4908297;28;116120;-83
2023/01/15 00:52:39;;;;;;;7.60;4.10;;;5.70;56.80;;;;;;4923238;28;115797;-83
2023/01/15 00:55:06;;;;;;;6.38;3.50;;;5.70;56.90;;;;;;4923431;28;115327;-84
2023/01/15 00:57:33;;;;;;;8.35;3.88;;;5.70;56.90;;;;;;4891957;28;114517;-83
2023/01/15 01:00:01;;;;;;;9.70;4.68;;;5.70;56.90;;;;;;4908220;28;114486;-83
2023/01/15 01:02:28;;;;;;;6.22;4.00;;;5.70;56.90;;;;;;4924810;28;115033;-83
2023/01/15 01:04:55;;;;;;;6.47;3.63;;;5.70;56.80;;;;;;4924074;28;114722;-83
2023/01/15 01:07:22;;;;;;;5.53;3.20;;;5.70;56.90;;;;;;4908665;28;115506;-83
2023/01/15 01:09:50;;;;;;;5.63;3.40;;;5.70;56.70;;;;;;4925776;28;114391;-83
2023/01/15 01:12:20;;;;;;;7.85;3.38;;;5.70;56.80;;;;;;4904448;28;115536;-83
2023/01/15 01:14:47;;;;;;;7.10;3.72;;;5.70;56.70;;;;;;4907502;28;114859;-83
2023/01/15 01:17:14;;;;;;;4.85;2.90;;;5.70;56.80;;;;;;4925739;28;114613;-83
2023/01/15 01:19:42;;;;;;;7.35;3.30;;;5.70;56.70;;;;;;4925380;28;114416;-82
2023/01/15 01:22:11;;;;;;;7.10;2.90;;;5.60;56.80;;;;;;4907339;28;115089;-82
2023/01/15 01:24:39;;;;;;;5.90;3.60;;;5.60;56.70;;;;;;4922981;28;114645;-82
2023/01/15 01:27:06;;;;;;;8.95;4.05;;;5.60;56.80;;;;;;4923833;28;114520;-83
2023/01/15 01:29:33;;;;;;;7.55;3.45;;;5.60;56.90;;;;;;4906896;28;114760;-83
2023/01/15 01:32:01;;;;;;;6.80;3.20;;;5.60;56.90;;;;;;4923277;28;115724;-83
2023/01/15 01:34:28;;;;;;;7.20;3.30;;;5.50;57.00;;;;;;4906594;28;114922;-83
2023/01/15 01:36:55;;;;;;;5.00;3.00;;;5.50;57.20;;;;;;4924800;28;118015;-82
2023/01/15 01:39:22;;;;;;;5.90;3.03;;;5.50;56.70;;;;;;4923054;28;115187;-83
2023/01/15 01:41:50;;;;;;;8.70;3.85;;;5.40;56.90;;;;;;4906514;28;116817;-82
2023/01/15 01:44:32;;;;;;;7.65;3.70;;;5.40;57.00;;;;;;4922427;28;117447;-82
2023/01/15 01:47:00;;;;;;;8.05;3.83;;;5.50;57.20;;;;;;4924994;28;114809;-83
2023/01/15 01:49:28;;;;;;;7.90;3.75;;;5.50;57.30;;;;;;4907381;28;114561;-82
2023/01/15 01:52:02;;;;;;;6.85;3.45;;;5.50;57.30;;;;;;4922327;28;115879;-82
2023/01/15 01:54:29;;;;;;;;;;;5.50;57.20;;;;;;4906216;28;114880;-82
2023/01/15 01:56:57;;;;;;;6.20;3.75;;;5.50;57.40;;;;;;4907539;28;114396;-82
2023/01/15 01:59:25;;;;;;;6.05;2.95;;;5.60;56.80;;;;;;4922662;28;114390;-83
2023/01/15 02:01:53;;;;;;;5.75;2.90;;;5.70;56.40;;;;;;4892689;28;114459;-82
2023/01/15 02:04:21;;;;;;;3.00;1.70;;;5.70;55.80;;;;;;4914036;28;114592;-82
2023/01/15 02:06:48;;;;;;;4.07;2.30;;;5.90;55.00;;;;;;4915821;28;114674;-83
2023/01/15 02:09:17;;;;;;;5.68;2.10;;;6.00;54.70;;;;;;4873778;28;114639;-83
2023/01/15 02:11:44;;;;;;;3.40;1.90;;;6.10;54.40;;;;;;4904440;28;115052;-82
2023/01/15 02:14:29;;;;;;;3.35;2.00;;;6.20;54.00;;;;;;4906488;28;114611;-83
2023/01/15 02:17:32;;;;;;;3.25;1.70;;;6.20;53.80;;;;;;4893854;28;114722;-82
2023/01/15 02:20:36;;;;;;;3.33;1.77;;;6.30;53.70;;;;;;4894445;28;114727;-82
2023/01/15 02:23:31;;;;;;;3.53;2.30;;;6.40;53.60;;;;;;4908347;28;114845;-83
2023/01/15 02:26:38;;;;;;;3.45;1.75;;;6.40;53.60;;;;;;4907641;28;118829;-82
2023/01/15 02:29:09;;;;;;;3.85;1.92;;;6.50;53.30;;;;;;4907994;28;114473;-82
2023/01/15 02:31:41;;;;;;;3.65;1.85;;;6.50;53.20;;;;;;4907875;28;114521;-83
2023/01/15 02:34:30;;;;;;;3.40;1.67;;;6.60;52.90;;;;;;4921568;28;115217;-83
2023/01/15 02:37:08;;;;;;;2.63;1.60;;;6.70;52.80;;;;;;4906798;28;115234;-82
2023/01/15 02:39:37;;;;;;;3.42;1.90;;;6.70;52.60;;;;;;4905456;28;114564;-82
2023/01/15 02:42:07;;;;;;;4.20;2.05;;;6.70;52.90;;;;;;4908361;28;114755;-82
2023/01/15 02:44:44;;;;;;;3.40;1.67;;;6.80;52.90;;;;;;4893373;28;115098;-82
2023/01/15 02:47:13;;;;;;;3.35;1.75;;;6.80;53.00;;;;;;4892049;28;114748;-82
2023/01/15 02:49:41;;;;;;;4.10;1.60;;;6.80;53.30;;;;;;4891981;28;114487;-82
2023/01/15 02:52:23;;;;;;;2.97;1.70;;;6.80;53.50;;;;;;4893059;28;114753;-82
2023/01/15 02:54:56;;;;;;;2.92;1.48;;;6.90;53.60;;;;;;4876030;28;117062;-83
2023/01/15 02:57:25;;;;;;;3.25;1.77;;;6.90;53.90;;;;;;4907511;28;114788;-84
2023/01/15 02:59:56;;;;;;;3.90;1.67;;;7.00;54.10;;;;;;4907940;28;114514;-83
2023/01/15 03:02:28;;;;;;;4.82;1.90;;;7.00;54.30;;;;;;4908225;28;114756;-83
2023/01/15 03:05:15;;;;;;;3.70;1.75;;;7.10;54.50;;;;;;4904308;28;115051;-84
2023/01/15 03:07:50;;;;;;;3.53;1.52;;;7.20;54.70;;;;;;4889853;28;115158;-83
2023/01/15 03:10:19;;;;;;;2.63;1.60;;;7.20;54.90;;;;;;4856887;28;114665;-83
2023/01/15 03:13:02;;;;;;;4.97;2.28;;;7.20;55.00;;;;;;4924878;28;114620;-84
2023/01/15 03:18:50;;;;;;;4.65;2.20;;;7.20;54.90;;;;;;4926938;28;114656;-83
2023/01/15 03:22:08;;;;;;;5.00;2.38;;;7.10;55.20;;;;;;4928027;28;114593;-83
2023/01/15 03:25:03;;;;;;;7.38;3.10;;;7.00;55.20;;;;;;4879524;28;114755;-83
2023/01/15 03:27:34;;;;;;;6.63;3.28;;;6.90;55.60;;;;;;4911540;28;115691;-83
2023/01/15 03:30:16;;;;;;;5.55;2.90;;;6.70;55.90;;;;;;4911660;28;115068;-83
2023/01/15 03:32:45;;;;;;;7.85;3.58;;;6.70;55.80;;;;;;4897917;28;114434;-82
2023/01/15 03:35:51;;;;;;;5.75;3.25;;;6.60;55.80;;;;;;4912033;28;114735;-83
2023/01/15 03:38:35;;;;;;;7.53;3.25;;;6.40;56.00;;;;;;4911362;28;115074;-84
2023/01/15 03:41:41;;;;;;;5.05;3.15;;;6.20;56.40;;;;;;4927176;28;114654;-83
2023/01/15 03:44:33;;;;;;;4.55;2.70;;;6.20;56.40;;;;;;4896519;28;114557;-84
2023/01/15 03:47:48;;;;;;;6.97;3.22;;;6.10;56.60;;;;;;4897737;28;114337;-83
2023/01/15 03:50:23;;;;;;;5.20;2.65;;;6.00;56.30;;;;;;4912466;28;115293;-84
2023/01/15 03:53:22;;;;;;;5.22;2.83;;;5.80;56.70;;;;;;4897577;28;114884;-83
2023/01/15 03:56:39;;;;;;;5.03;2.90;;;5.80;56.90;;;;;;4881886;28;114759;-84
2023/01/15 03:59:44;;;;;;;4.53;2.35;;;5.70;57.10;;;;;;4898316;28;115015;-84
2023/01/15 04:02:11;;;;;;;4.05;2.40;;;5.70;57.00;;;;;;4894723;28;115811;-83
2023/01/15 04:04:39;;;;;;;5.63;3.00;;;5.70;57.20;;;;;;4893887;28;116891;-83
2023/01/15 04:07:06;;;;;;;4.50;2.35;;;5.70;57.40;;;;;;4894503;28;114550;-84
2023/01/15 04:09:38;;;;;;;4.22;2.58;;;5.70;57.40;;;;;;4910502;28;114460;-84
2023/01/15 04:12:07;;;;;;;5.70;2.90;;;5.70;57.40;;;;;;4925651;28;115512;-83
2023/01/15 04:14:39;;;;;;;4.40;2.72;;;5.70;57.40;;;;;;4905325;28;114719;-83
2023/01/15 04:17:11;;;;;;;7.07;2.80;;;5.70;57.50;;;;;;4906596;28;114364;-83
2023/01/15 04:19:38;;;;;;;5.55;3.03;;;5.60;57.60;;;;;;4892672;28;114599;-84
2023/01/15 04:22:10;;;;;;;5.45;2.42;;;5.60;57.70;;;;;;4926764;28;115284;-82
2023/01/15 04:24:40;;;;;;;4.97;2.65;;;5.60;57.70;;;;;;4891772;28;115664;-83
2023/01/15 04:27:07;;;;;;;6.85;3.05;;;5.60;57.70;;;;;;4908138;28;114633;-83
2023/01/15 04:29:34;;;;;;;4.45;2.53;;;5.60;57.80;;;;;;4927439;28;114544;-82
2023/01/15 04:32:02;;;;;;;6.00;3.15;;;5.70;57.70;;;;;;4909329;28;115431;-83
2023/01/15 04:34:29;;;;;;;7.10;3.08;;;5.70;57.50;;;;;;4877630;28;114623;-82
2023/01/15 04:36:57;;;;;;;5.35;2.70;;;5.70;57.60;;;;;;4909408;28;114522;-84
2023/01/15 04:39:24;;;;;;;5.82;2.92;;;5.70;57.70;;;;;;4878990;28;114613;-83
2023/01/15 04:44:37;;;;;;;6.43;2.95;;;5.70;57.50;;;;;;4911212;28;114655;-82
2023/01/15 04:47:04;;;;;;;7.25;3.10;;;5.80;57.50;;;;;;4894070;28;114891;-82
2023/01/15 04:49:32;;;;;;;5.22;3.10;;;5.70;57.50;;;;;;4890824;28;114582;-83
2023/01/15 04:51:59;;;;;;;5.20;2.80;;;5.80;57.40;;;;;;4924637;28;116512;-82
2023/01/15 04:54:31;;;;;;;5.90;2.70;;;5.80;57.10;;;;;;4909929;28;114808;-82
2023/01/15 04:56:58;;;;;;;6.00;2.97;;;5.70;57.10;;;;;;4906410;28;114631;-83
2023/01/15 04:59:26;;;;;;;5.38;2.85;;;5.80;57.30;;;;;;4927167;28;114636;-82
2023/01/15 05:01:53;;;;;;;6.18;2.90;;;5.80;57.10;;;;;;4915554;28;115425;-83
2023/01/15 05:04:31;;;;;;;4.93;2.97;;;5.80;57.10;;;;;;4893157;28;114655;-83
2023/01/15 05:07:01;;;;;;;9.55;2.67;;;5.80;57.20;;;;;;4926483;28;114568;-83
2023/01/15 05:09:31;;;;;;;4.78;2.58;;;5.90;57.10;;;;;;4910678;28;114794;-83
2023/01/15 05:11:59;;;;;;;5.90;2.72;;;5.90;57.10;;;;;;4925774;28;117899;-84
2023/01/15 05:14:26;;;;;;;5.60;3.20;;;5.90;57.20;;;;;;4908234;28;114605;-83
2023/01/15 05:16:53;;;;;;;7.53;3.15;;;5.90;57.00;;;;;;4925620;28;114797;-83
2023/01/15 05:19:20;;;;;;;6.68;3.10;;;5.90;56.80;;;;;;4925238;28;114562;-84
2023/01/15 05:21:48;;;;;;;5.30;2.65;;;6.00;56.80;;;;;;4926075;28;115483;-83
2023/01/15 05:24:16;;;;;;;6.00;2.75;;;6.00;56.50;;;;;;4924788;28;114737;-84
2023/01/15 05:26:43;;;;;;;5.00;2.58;;;6.00;56.60;;;;;;4892755;28;114595;-83
2023/01/15 05:29:10;;;;;;;5.75;3.13;;;6.00;56.30;;;;;;4893560;28;114506;-83
2023/01/15 05:31:38;;;;;;;7.38;3.33;;;6.10;56.30;;;;;;4924673;28;115129;-83
2023/01/15 05:34:05;;;;;;;9.43;2.85;;;6.10;56.20;;;;;;4925830;28;115235;-83
2023/01/15 05:36:32;;;;;;;6.32;2.40;;;6.10;56.20;;;;;;4929794;28;117882;-83
2023/01/15 05:39:02;;;;;;;6.30;2.70;;;6.10;56.10;;;;;;4893198;28;114539;-82
2023/01/15 05:41:48;;;;;;;5.43;3.15;;;6.10;55.80;;;;;;4927239;28;116170;-82
2023/01/15 05:44:27;;;;;;;6.78;3.03;;;6.10;55.80;;;;;;4930817;28;114646;-83
2023/01/15 05:46:56;;;;;;;3.78;2.03;;;6.10;55.20;;;;;;4913360;28;114768;-82
2023/01/15 05:49:26;;;;;;;3.58;2.28;;;6.10;55.30;;;;;;4914241;28;116124;-82
2023/01/15 05:51:54;;;;;;;6.65;2.65;;;6.10;55.10;;;;;;4912264;28;115291;-82
2023/01/15 05:54:25;;;;;;;5.97;2.75;;;6.00;55.50;;;;;;4896612;28;118731;-83
2023/01/15 05:56:52;;;;;;;5.22;2.55;;;6.10;55.50;;;;;;4930084;28;114436;-83
2023/01/15 05:59:22;;;;;;;10.70;2.88;;;6.00;55.40;;;;;;4913699;28;114454;-84
2023/01/15 06:01:50;;;;;;;5.43;2.90;;;6.10;55.40;;;;;;4925670;28;119214;-84
2023/01/15 06:04:19;;;;;;;6.35;2.90;;;6.10;55.10;;;;;;4908263;28;115191;-83
2023/01/15 06:06:51;;;;;;;5.75;3.05;;;6.10;55.20;;;;;;4926293;28;114604;-82
2023/01/15 06:09:18;;;;;;;6.35;2.47;;;6.10;54.90;;;;;;4924912;28;119930;-83
2023/01/15 06:11:46;;;;;;;5.15;2.80;;;6.10;54.70;;;;;;4923846;28;114849;-83
2023/01/15 06:14:13;;;;;;;6.15;2.50;;;6.10;54.20;;;;;;4923404;28;116112;-85
2023/01/15 06:16:41;;;;;;;4.85;3.03;;;6.00;54.60;;;;;;4908991;28;114635;-83
2023/01/15 06:19:09;;;;;;;7.32;2.88;;;6.10;54.70;;;;;;4893166;28;114807;-83
2023/01/15 06:21:37;;;;;;;6.93;2.60;;;6.10;54.30;;;;;;4907991;28;115357;-84
2023/01/15 06:24:05;;;;;;;5.88;2.60;;;6.10;54.10;;;;;;4911611;28;116169;-83
2023/01/15 06:26:32;;;;;;;5.57;2.70;;;6.10;54.30;;;;;;4926722;28;114421;-84
2023/01/15 06:28:59;;;;;;;8.38;3.60;;;6.10;54.50;;;;;;4908642;28;114695;-84
2023/01/15 06:31:26;;;;;;;6.72;3.03;;;6.10;54.20;;;;;;4925702;28;115517;-84
2023/01/15 06:33:54;;;;;;;4.40;2.20;;;6.20;54.20;;;;;;4907016;28;117767;-84
2023/01/15 06:36:23;;;;;;;4.15;2.20;;;6.20;53.70;;;;;;4909640;28;114676;-84
2023/01/15 06:38:50;;;;;;;6.47;2.72;;;6.20;53.20;;;;;;4908107;28;115073;-84
2023/01/15 06:47:22;;;;;;;6.93;2.60;;;6.20;53.40;;;;;;4915795;28;114682;-83
2023/01/15 06:49:56;;;;;;;7.28;2.67;;;6.30;53.00;;;;;;4917019;28;115082;-83
2023/01/15 06:52:27;;;;;;;5.87;2.10;;;6.30;52.80;;;;;;4918469;28;115701;-83
2023/01/15 06:54:55;;;;;;;4.75;2.35;;;6.30;53.00;;;;;;4916580;28;114832;-84
2023/01/15 06:57:23;;;;;;;5.47;2.63;;;6.30;52.70;;;;;;4917140;28;114717;-83
2023/01/15 06:59:50;;;;;;;6.18;2.63;;;6.30;53.00;;;;;;4906009;28;114780;-83
2023/01/15 07:02:17;;;;;;;5.72;2.55;;;6.40;53.00;;;;;;4914641;28;116357;-83
2023/01/15 07:04:45;;;;;;;6.57;2.95;;;6.40;52.90;;;;;;4906353;28;115410;-83
2023/01/15 07:07:15;;;;;;;6.03;2.45;;;6.40;52.80;;;;;;4904973;28;114716;-84
2023/01/15 07:09:42;;;;;;;6.22;2.72;;;6.40;52.80;;;;;;4913970;28;116943;-84
2023/01/15 07:12:11;;;;;;;5.68;3.05;;;6.50;53.00;;;;;;4915749;28;115176;-84
2023/01/15 07:14:38;;;;;;;5.78;2.92;;;6.50;52.60;;;;;;4905661;28;114681;-84
2023/01/15 07:17:06;;;;;;;5.47;2.78;;;6.50;52.80;;;;;;4907196;28;114686;-82
2023/01/15 07:19:33;;;;;;;4.38;2.28;;;6.50;52.20;;;;;;4924112;28;114773;-82
2023/01/15 07:22:00;;;;;;;4.53;2.17;;;6.50;52.20;;;;;;4922127;28;115269;-84
2023/01/15 07:24:27;;;;;;;5.43;2.15;;;6.50;51.20;;;;;;4907938;28;115111;-85
2023/01/15 07:26:55;;;;;;;5.18;2.58;;;6.50;51.70;;;;;;4913059;28;114846;-85
2023/01/15 07:29:22;;;;;;;4.95;1.90;;;6.50;51.80;;;;;;4906198;28;114631;-84
2023/01/15 07:31:50;;;;;;;4.70;2.17;;;6.60;51.90;;;;;;4922481;28;115488;-85
2023/01/15 07:34:17;;;;;;;4.45;1.98;;;6.70;51.60;;;;;;4889429;28;115378;-83
2023/01/15 07:36:44;;;;;;;3.70;1.90;;;6.70;51.60;;;;;;4923891;28;114559;-84
2023/01/15 07:39:12;;;;;;;3.90;2.08;;;6.70;51.30;;;;;;4924105;28;114535;-83
2023/01/15 07:50:21;;;;;;;6.75;2.13;;;6.80;51.20;;;;;;4922527;28;114530;-84
2023/01/15 07:52:48;;;;;;;3.88;2.10;;;6.90;51.00;;;;;;4906564;28;115352;-84
2023/01/15 07:55:19;;;;;;;5.00;2.30;;;6.90;50.70;;;;;;4923551;28;114561;-86
2023/01/15 07:57:46;;;;;;;5.00;2.35;;;7.00;50.40;;;;;;4919256;28;114511;-84
2023/01/15 08:00:18;;;;;;;4.63;1.83;;;7.00;50.30;;;;;;4899195;28;116750;-84
2023/01/15 08:02:48;;;;;;;3.80;1.95;;;7.00;49.90;;;;;;4906643;28;115203;-83
2023/01/15 08:05:16;;;;;;;3.47;1.95;;;7.00;49.80;;;;;;4907101;28;117267;-84
2023/01/15 08:07:44;;;;;;;4.50;1.85;;;7.00;49.60;;;;;;4909672;28;114558;-83
2023/01/15 08:10:12;;;;;;;4.30;2.08;;;7.00;49.30;;;;;;4875697;28;115085;-84
2023/01/15 08:15:25;;;;;;;3.92;2.28;;;7.10;49.00;;;;;;4923839;28;115597;-84
2023/01/15 08:17:53;;;;;;;5.15;2.00;;;7.10;49.40;;;;;;4925639;28;114632;-83
2023/01/15 08:20:24;;;;;;;3.63;1.77;;;7.00;49.20;;;;;;4924871;28;115066;-84
2023/01/15 08:22:51;;;;;;;3.47;1.63;;;7.10;49.10;;;;;;4892641;28;115459;-82
2023/01/15 08:25:21;;;;;;;3.97;1.58;;;7.10;49.20;;;;;;4908839;28;114600;-83
2023/01/15 08:27:48;;;;;;;3.33;1.83;;;7.10;49.00;;;;;;4924158;28;114918;-83
2023/01/15 08:30:18;;;;;;;3.53;1.70;;;7.10;49.20;;;;;;4923259;28;114906;-83
2023/01/15 08:32:46;;;;;;;4.72;1.92;;;7.10;49.00;;;;;;4924790;28;115665;-82
2023/01/15 08:35:13;;;;;;;4.78;2.35;;;7.10;49.00;;;;;;4922360;28;114893;-82
2023/01/15 08:37:41;;;;;;;5.57;2.00;;;7.10;49.10;;;;;;4925247;28;114640;-84
2023/01/15 08:40:10;;;;;;;5.07;1.83;;;7.10;49.00;;;;;;4909344;28;117979;-83
2023/01/15 08:42:37;;;;;;;3.17;1.40;;;7.10;48.90;;;;;;4908490;28;115219;-83
2023/01/15 08:45:06;;;;;;;4.15;2.13;;;7.20;48.90;;;;;;4907315;28;115070;-84
2023/01/15 08:47:33;;;;;;;4.75;2.55;;;7.20;49.00;;;;;;4925009;28;114732;-83
2023/01/15 08:50:00;;;;;;;5.25;2.35;;;7.20;49.20;;;;;;4908876;28;114535;-83
2023/01/15 08:52:28;;;;;;;5.63;2.63;;;7.20;49.20;;;;;;4908328;28;115977;-84
2023/01/15 08:54:55;;;;;;;5.40;2.30;;;7.20;49.20;;;;;;4920168;28;119661;-83
2023/01/15 08:57:22;;;;;;;6.13;2.38;;;7.20;49.00;;;;;;4907930;28;115144;-82
2023/01/15 08:59:50;;;;;;;3.92;1.88;;;7.30;49.30;;;;;;4914425;28;118297;-83
2023/01/15 09:02:19;;;;;;;4.47;2.20;;;7.30;49.10;;;;;;4902733;28;115517;-83
2023/01/15 09:04:46;;;;;;;3.80;1.70;;;7.40;48.70;;;;;;4918642;28;115801;-83
2023/01/15 09:07:15;;;;;;;3.92;1.55;;;7.40;48.30;;;;;;4922163;28;114979;-84
2023/01/15 09:09:42;;;;;;;4.75;1.83;;;7.40;48.10;;;;;;4924813;28;115578;-85
2023/01/15 09:12:13;;;;;;;3.58;1.70;;;7.40;48.00;;;;;;4913285;28;115804;-84
2023/01/15 09:14:40;;;;;;;5.75;1.58;;;7.40;48.20;;;;;;4916038;28;114555;-84
2023/01/15 09:17:27;;;;;;;3.88;1.75;;;7.50;48.40;;;;;;4925010;28;114856;-83
2023/01/15 09:19:55;;;;;;;3.45;1.50;;;7.50;48.30;;;;;;4910070;28;116165;-83
2023/01/15 09:22:22;;;;;;;3.83;2.00;;;7.60;47.40;;;;;;4908831;28;115117;-85
2023/01/15 09:24:49;;;;;;;6.70;2.25;;;7.60;47.40;;;;;;4908416;28;114758;-83
2023/01/15 09:27:16;;;;;;;3.88;1.70;;;7.60;47.90;;;;;;4926459;28;114363;-86
2023/01/15 09:29:44;;;;;;;4.47;1.95;;;7.60;47.90;;;;;;4909138;28;114789;-85
2023/01/15 09:32:13;;;;;;;3.28;1.77;;;7.60;47.90;;;;;;4908681;28;115066;-84
2023/01/15 09:34:40;;;;;;;4.45;2.08;;;7.70;47.70;;;;;;4905929;28;117974;-84
2023/01/15 09:37:07;;;;;;;4.53;1.80;;;7.70;47.90;;;;;;4890576;28;115449;-85
2023/01/15 09:39:36;;;;;;;4.25;2.00;;;7.80;47.80;;;;;;4905624;28;118593;-85
2023/01/15 09:42:37;;;;;;;4.45;1.90;;;7.80;47.70;;;;;;4892056;28;115137;-85
2023/01/15 09:45:24;;;;;;;3.42;1.85;;;7.90;47.60;;;;;;4893244;28;116201;-84
2023/01/15 09:48:48;;;;;;;4.50;1.73;;;7.80;47.30;;;;;;4906013;28;118221;-85
2023/01/15 09:52:02;;;;;;;3.72;2.00;;;7.90;47.40;;;;;;4886474;28;114589;-84
2023/01/15 09:54:55;;;;;;;4.13;2.13;;;7.80;47.50;;;;;;4883756;28;115743;-85
2023/01/15 09:57:23;;;;;;;4.40;2.50;;;7.80;47.20;;;;;;4881552;28;115090;-85
2023/01/15 09:59:59;;;;;;;3.65;1.83;;;7.70;47.20;;;;;;4889208;28;114533;-84
2023/01/15 10:03:24;;;;;;;4.95;2.15;;;7.70;47.40;;;;;;4905761;28;114764;-85
2023/01/15 10:06:13;;;;;;;6.28;2.45;;;7.80;47.20;;;;;;4892218;28;115311;-84
2023/01/15 10:08:47;;;;;;;6.93;2.70;;;7.70;47.60;;;;;;4905014;28;119088;-83
2023/01/15 10:11:14;;;;;;;8.35;2.90;;;7.70;47.70;;;;;;4882194;28;114782;-84
2023/01/15 10:13:58;;;;;;;5.60;2.70;;;7.60;47.80;;;;;;4902981;28;116042;-84
2023/01/15 10:16:32;;;;;;;4.05;2.10;;;7.60;47.90;;;;;;4900974;28;119020;-85
2023/01/15 10:19:01;;;;;;;10.10;2.63;;;7.50;48.00;;;;;;4905368;28;114696;-84
2023/01/15 10:21:56;;;;;;;8.85;3.17;;;7.40;48.40;;;;;;4888777;28;114489;-84
2023/01/15 10:24:41;;;;;;;6.82;2.90;;;7.40;48.40;;;;;;4886284;28;114545;-83
2023/01/15 10:27:20;;;;;;;9.35;2.97;;;7.40;48.50;;;;;;4887790;28;115972;-84
2023/01/15 10:30:05;;;;;;;5.43;3.00;;;7.30;48.80;;;;;;4873147;28;115350;-82
2023/01/15 10:32:52;;;;;;;8.43;3.15;;;7.30;48.90;;;;;;4886948;28;119845;-82
2023/01/15 10:35:56;;;;;;;6.65;3.13;;;7.30;49.10;;;;;;4898745;28;114737;-84
2023/01/15 10:38:44;;;;;;;5.88;2.97;;;7.20;49.30;;;;;;4882061;28;115158;-83
2023/01/15 10:42:09;;;;;;;7.50;3.00;;;7.20;49.40;;;;;;4897418;28;114866;-84
2023/01/15 10:44:59;;;;;;;8.38;3.28;;;7.20;49.40;;;;;;4902368;28;115161;-82
2023/01/15 10:47:40;;;;;;;5.80;2.85;;;6.90;49.90;;;;;;4900417;28;116212;-84
2023/01/15 10:50:22;;;;;;;5.65;2.47;;;6.90;50.20;;;;;;4872484;28;115884;-83
2023/01/15 10:53:15;;;;;;;5.50;2.67;;;6.90;50.40;;;;;;4886441;28;115332;-84
2023/01/15 10:56:32;;;;;;;5.82;3.00;;;6.80;50.50;;;;;;4884953;28;116705;-84
2023/01/15 10:59:21;;;;;;;6.22;3.13;;;6.90;50.70;;;;;;4874192;28;115427;-84
2023/01/15 11:01:52;;;;;;;6.22;3.17;;;6.90;50.90;;;;;;4906684;28;115091;-84
2023/01/15 11:04:20;;;;;;;6.43;3.25;;;6.80;51.00;;;;;;4908362;28;115027;-83
2023/01/15 11:06:47;;;;;;;6.93;3.15;;;6.80;51.10;;;;;;4926975;28;119899;-84
2023/01/15 11:09:23;;;;;;;6.05;2.75;;;6.90;51.20;;;;;;4911736;28;114823;-83
2023/01/15 11:20:42;;;;;;;7.50;4.65;;;6.70;52.20;;;;;;4893666;28;114588;-82
2023/01/15 11:23:15;;;;;;;7.35;4.32;;;6.70;52.40;;;;;;4886898;28;119370;-83
2023/01/15 11:25:57;;;;;;;8.80;4.30;;;6.70;52.40;;;;;;4893153;28;115514;-83
2023/01/15 11:28:45;;;;;;;10.77;4.38;;;6.60;52.60;;;;;;4891633;28;114711;-83
2023/01/15 11:31:13;;;;;;;6.78;3.90;;;6.60;52.90;;;;;;4907963;28;114928;-84
2023/01/15 11:33:43;;;;;;;6.30;3.20;;;6.60;53.00;;;;;;4887706;28;115253;-82
2023/01/15 11:36:23;;;;;;;5.97;3.05;;;6.60;52.90;;;;;;4885177;28;116658;-83
2023/01/15 11:38:50;;;;;;;5.05;2.72;;;6.50;53.20;;;;;;4926442;28;114517;-84
2023/01/15 11:52:52;;;;;;;5.60;2.88;;;6.40;54.10;;;;;;4917739;28;114452;-84
2023/01/15 11:55:21;;;;;;;5.97;2.95;;;6.30;54.20;;;;;;4902897;28;115552;-83
2023/01/15 11:57:48;;;;;;;8.57;2.60;;;6.30;54.30;;;;;;4908861;28;115879;-83
2023/01/15 12:00:27;;;;;;;5.75;2.72;;;6.30;54.60;;;;;;4925678;28;115628;-84
2023/01/15 12:03:03;;;;;;;5.00;3.17;;;6.30;54.70;;;;;;4926114;28;114578;-83
2023/01/15 12:06:05;;;;;;;5.47;3.03;;;6.40;54.90;;;;;;4924937;28;115582;-84
2023/01/15 12:08:52;;;;;;;5.53;3.28;;;6.50;55.00;;;;;;4920451;28;114834;-83
2023/01/15 12:12:15;;;;;;;6.38;2.85;;;6.40;55.10;;;;;;4926562;28;116257;-83
2023/01/15 12:15:07;;;;;;;5.63;2.83;;;6.40;55.20;;;;;;4901454;28;114702;-84
2023/01/15 12:18:03;;;;;;;5.22;3.20;;;6.30;55.60;;;;;;4926132;28;117321;-83
2023/01/15 12:21:12;;;;;;;6.88;3.13;;;6.30;55.70;;;;;;4914268;28;114708;-84
2023/01/15 12:24:07;;;;;;;6.85;3.67;;;6.20;56.00;;;;;;4909846;28;114641;-83
2023/01/15 12:26:49;;;;;;;8.10;3.45;;;6.30;56.20;;;;;;4926266;28;116380;-84
2023/01/15 12:29:38;;;;;;;8.68;3.58;;;6.40;56.30;;;;;;4893129;28;115027;-83
2023/01/15 12:32:17;;;;;;;9.32;3.50;;;6.40;56.30;;;;;;4901660;28;115974;-83
2023/01/15 12:34:57;;;;;;;7.18;3.78;;;6.50;56.30;;;;;;4891794;28;116370;-84
2023/01/15 12:37:47;;;;;;;7.28;3.40;;;6.50;56.40;;;;;;4922023;28;119363;-84
2023/01/15 12:40:43;;;;;;;10.07;4.20;;;6.60;56.40;;;;;;4908491;28;115143;-83
2023/01/15 12:46:17;;;;;;;6.03;3.58;;;6.70;56.60;;;;;;4925846;28;114885;-84
2023/01/15 12:48:53;;;;;;;7.75;3.38;;;6.70;56.40;;;;;;4893269;28;114472;-83
2023/01/15 12:51:54;;;;;;;7.03;3.55;;;6.70;56.40;;;;;;4908682;28;115515;-84
2023/01/15 12:54:30;;;;;;;8.48;3.97;;;6.80;56.40;;;;;;4889496;28;114678;-84
2023/01/15 12:57:07;;;;;;;9.15;2.78;;;6.80;56.40;;;;;;4908446;28;114608;-84
2023/01/15 13:00:23;;;;;;;7.32;3.33;;;6.70;56.20;;;;;;4912100;28;114739;-84
2023/01/15 13:03:29;;;;;;;7.35;4.05;;;6.80;56.30;;;;;;4933236;28;115136;-83
2023/01/15 13:06:17;;;;;;;6.22;3.40;;;6.70;56.40;;;;;;4909004;28;114606;-84
2023/01/15 13:09:00;;;;;;;5.20;2.90;;;6.70;56.50;;;;;;4909011;28;114599;-84
2023/01/15 13:11:30;;;;;;;5.68;3.33;;;6.60;56.70;;;;;;4926645;28;117308;-83
2023/01/15 13:13:58;;;;;;;5.32;2.92;;;6.50;56.80;;;;;;4905826;28;115463;-83
2023/01/15 13:17:01;;;;;;;5.18;3.08;;;6.40;57.00;;;;;;4908123;28;117099;-83
2023/01/15 13:20:09;;;;;;;6.03;3.33;;;6.40;57.40;;;;;;4924853;28;114815;-83
2023/01/15 13:23:24;;;;;;;5.15;2.95;;;6.30;57.60;;;;;;4908832;28;115267;-83
2023/01/15 13:26:19;;;;;;;7.07;3.60;;;6.20;58.00;;;;;;4924067;28;115165;-83
2023/01/15 13:29:18;;;;;;;5.85;3.35;;;6.20;58.10;;;;;;4923804;28;118682;-83
2023/01/15 13:32:15;;;;;;;5.38;3.10;;;6.10;58.30;;;;;;4924904;28;114508;-83
2023/01/15 13:34:51;;;;;;;5.53;2.63;;;6.10;58.40;;;;;;4925862;28;114581;-83
2023/01/15 13:37:30;;;;;;;5.10;3.13;;;6.10;58.70;;;;;;4923807;28;115133;-83
2023/01/15 13:40:28;;;;;;;5.60;3.08;;;6.00;58.80;;;;;;4907638;28;114806;-83
2023/01/15 13:43:01;;;;;;;5.97;2.97;;;6.00;59.00;;;;;;4897670;28;115014;-83
2023/01/15 13:45:57;;;;;;;4.72;2.92;;;5.90;59.20;;;;;;4889560;28;114726;-83
2023/01/15 13:48:40;;;;;;;7.80;3.85;;;5.90;59.30;;;;;;4906753;28;115660;-83
2023/01/15 13:51:42;;;;;;;5.78;3.30;;;5.80;59.60;;;;;;4907628;28;116466;-83
2023/01/15 13:54:26;;;;;;;6.10;3.53;;;5.80;59.80;;;;;;4900902;28;114668;-83
2023/01/15 13:56:54;;;;;;;8.63;3.85;;;5.70;59.90;;;;;;4905891;28;114645;-84
2023/01/15 13:59:43;;;;;;;5.18;3.20;;;5.70;60.00;;;;;;4906913;28;117764;-83
2023/01/15 14:02:31;;;;;;;4.82;2.50;;;5.80;60.00;;;;;;4923929;28;116253;-83
2023/01/15 14:05:22;;;;;;;3.75;2.33;;;5.80;60.00;;;;;;4904326;28;114859;-83
2023/01/15 14:07:52;;;;;;;6.47;3.55;;;5.70;60.10;;;;;;4923630;28;114868;-83
2023/01/15 14:10:38;;;;;;;5.68;3.25;;;5.70;60.30;;;;;;4923028;28;115030;-83
2023/01/15 14:13:45;;;;;;;5.72;2.80;;;5.70;60.50;;;;;;4906620;28;114632;-83
2023/01/15 14:16:55;;;;;;;6.35;3.30;;;5.70;60.70;;;;;;4924123;28;114912;-84
2023/01/15 14:19:54;;;;;;;6.20;3.38;;;5.60;60.90;;;;;;4924741;28;115271;-83
2023/01/15 14:22:56;;;;;;;4.35;2.53;;;5.60;60.90;;;;;;4923660;28;115211;-83
2023/01/15 14:26:07;;;;;;;4.80;2.83;;;5.60;61.00;;;;;;4901809;28;114616;-82